createdAt,value
2019-05-06T00:00:55.162Z,15.1
2019-05-06T00:02:00.593Z,15.1
2019-05-06T00:03:01.835Z,15.1
2019-05-06T00:04:04.827Z,15.1
2019-05-06T00:05:06.266Z,15.1
2019-05-06T00:06:07.504Z,15.1
2019-05-06T00:07:08.951Z,15.1
2019-05-06T00:08:10.344Z,15.1
2019-05-06T00:09:11.564Z,15.1
2019-05-06T00:10:13.428Z,15.1
2019-05-06T00:11:14.812Z,15.1
2019-05-06T00:12:16.072Z,15
2019-05-06T00:13:24.118Z,15
2019-05-06T00:14:28.263Z,15
2019-05-06T00:15:29.503Z,15
2019-05-06T00:16:30.798Z,15
2019-05-06T00:17:32.123Z,15
2019-05-06T00:18:35.645Z,15
2019-05-06T00:19:36.917Z,15
2019-05-06T00:20:38.166Z,14.9
2019-05-06T00:21:39.406Z,15
2019-05-06T00:22:40.716Z,15
2019-05-06T00:23:44.942Z,15
2019-05-06T00:24:46.362Z,15
2019-05-06T00:25:47.607Z,15
2019-05-06T00:26:48.874Z,14.9
2019-05-06T00:27:50.132Z,14.9
2019-05-06T00:28:53.869Z,14.9
2019-05-06T00:29:55.192Z,14.9
2019-05-06T00:31:09.319Z,14.9
2019-05-06T00:32:18.619Z,14.9
2019-05-06T00:33:19.895Z,14.9
2019-05-06T00:34:21.175Z,14.9
2019-05-06T00:35:25.183Z,14.9
2019-05-06T00:36:28.875Z,14.8
2019-05-06T00:37:30.120Z,14.9
2019-05-06T00:38:31.435Z,14.8
2019-05-06T00:39:34.755Z,14.8
2019-05-06T00:40:36.017Z,14.8
2019-05-06T00:41:37.275Z,14.8
2019-05-06T00:42:38.547Z,14.8
2019-05-06T00:43:39.920Z,14.8
2019-05-06T00:44:41.190Z,14.8
2019-05-06T00:45:44.284Z,14.8
2019-05-06T00:46:45.716Z,14.8
2019-05-06T00:47:47.024Z,14.7
2019-05-06T00:48:48.707Z,14.7
2019-05-06T00:49:49.954Z,14.7
2019-05-06T00:50:51.207Z,14.7
2019-05-06T00:51:54.998Z,14.7
2019-05-06T00:52:56.475Z,14.7
2019-05-06T00:54:00.002Z,14.7
2019-05-06T00:55:01.269Z,14.7
2019-05-06T00:56:04.738Z,14.7
2019-05-06T00:57:06.071Z,14.7
2019-05-06T00:58:07.685Z,14.6
2019-05-06T00:59:08.967Z,14.6
2019-05-06T01:00:10.205Z,14.6
2019-05-06T01:01:23.870Z,14.6
2019-05-06T01:02:34.103Z,14.6
2019-05-06T01:03:35.573Z,14.6
2019-05-06T01:04:36.885Z,14.6
2019-05-06T01:05:38.161Z,14.6
2019-05-06T01:06:39.421Z,14.6
2019-05-06T01:07:40.793Z,14.6
2019-05-06T01:08:45.127Z,14.6
2019-05-06T01:09:46.468Z,14.6
2019-05-06T01:10:47.961Z,14.5
2019-05-06T01:11:49.207Z,14.5
2019-05-06T01:12:50.447Z,14.5
2019-05-06T01:13:52.099Z,14.5
2019-05-06T01:14:56.267Z,14.5
2019-05-06T01:15:57.767Z,14.5
2019-05-06T01:16:59.024Z,14.5
2019-05-06T01:18:00.277Z,14.5
2019-05-06T01:19:01.695Z,14.5
2019-05-06T01:20:05.382Z,14.5
2019-05-06T01:21:06.643Z,14.4
2019-05-06T01:22:07.895Z,14.5
2019-05-06T01:23:09.151Z,14.4
2019-05-06T01:24:10.560Z,14.4
2019-05-06T01:25:23.618Z,14.4
2019-05-06T01:26:25.082Z,14.4
2019-05-06T01:27:26.333Z,14.4
2019-05-06T01:28:27.609Z,14.4
2019-05-06T01:29:28.844Z,14.4
2019-05-06T01:30:30.117Z,14.4
2019-05-06T01:31:40.488Z,14.4
2019-05-06T01:32:46.687Z,14.3
2019-05-06T01:33:47.958Z,14.3
2019-05-06T01:34:49.223Z,14.3
2019-05-06T01:35:50.483Z,14.3
2019-05-06T01:36:56.217Z,14.3
2019-05-06T01:37:57.785Z,14.3
2019-05-06T01:38:59.049Z,14.3
2019-05-06T01:40:00.302Z,14.3
2019-05-06T01:41:01.607Z,14.3
2019-05-06T01:42:04.672Z,14.3
2019-05-06T01:43:05.915Z,14.3
2019-05-06T01:44:07.183Z,14.3
2019-05-06T01:45:08.427Z,14.3
2019-05-06T01:46:09.689Z,14.3
2019-05-06T01:47:10.950Z,14.3
2019-05-06T01:48:14.481Z,14.2
2019-05-06T01:49:15.713Z,14.2
2019-05-06T01:50:17.368Z,14.2
2019-05-06T01:51:18.641Z,14.2
2019-05-06T01:52:19.865Z,14.2
2019-05-06T01:53:21.299Z,14.2
2019-05-06T01:54:25.024Z,14.2
2019-05-06T01:55:26.374Z,14.2
2019-05-06T01:56:27.708Z,14.2
2019-05-06T01:57:34.263Z,14.2
2019-05-06T01:58:35.518Z,14.2
2019-05-06T01:59:36.737Z,14.1
2019-05-06T02:00:39.486Z,14.1
2019-05-06T02:01:54.536Z,14.1
2019-05-06T02:03:08.091Z,14.1
2019-05-06T02:04:13.797Z,14.1
2019-05-06T02:05:15.313Z,14.1
2019-05-06T02:06:16.574Z,14.1
2019-05-06T02:07:17.869Z,14.1
2019-05-06T02:08:19.108Z,14.1
2019-05-06T02:09:20.339Z,14.1
2019-05-06T02:10:23.699Z,14.1
2019-05-06T02:11:25.145Z,14.1
2019-05-06T02:12:26.495Z,14.1
2019-05-06T02:13:27.731Z,14.1
2019-05-06T02:14:29.218Z,14.1
2019-05-06T02:15:31.460Z,14.1
2019-05-06T02:16:34.257Z,14.1
2019-05-06T02:17:38.292Z,14.1
2019-05-06T02:18:39.553Z,14
2019-05-06T02:19:40.805Z,14
2019-05-06T02:20:44.625Z,14
2019-05-06T02:21:45.867Z,14
2019-05-06T02:22:47.133Z,14
2019-05-06T02:23:48.344Z,14
2019-05-06T02:24:49.570Z,14
2019-05-06T02:25:50.813Z,14
2019-05-06T02:26:53.712Z,14
2019-05-06T02:27:55.655Z,14
2019-05-06T02:28:56.899Z,14
2019-05-06T02:29:58.142Z,13.9
2019-05-06T02:30:59.403Z,13.9
2019-05-06T02:32:15.730Z,14
2019-05-06T02:33:27.675Z,13.9
2019-05-06T02:34:28.926Z,13.9
2019-05-06T02:35:30.197Z,13.9
2019-05-06T02:36:33.812Z,13.9
2019-05-06T02:37:35.579Z,13.9
2019-05-06T02:38:46.364Z,13.9
2019-05-06T02:39:55.453Z,13.9
2019-05-06T02:40:56.932Z,13.9
2019-05-06T02:41:58.166Z,13.9
2019-05-06T02:42:59.436Z,13.9
2019-05-06T02:44:03.957Z,13.9
2019-05-06T02:45:15.215Z,13.8
2019-05-06T02:46:16.460Z,13.8
2019-05-06T02:47:17.699Z,13.9
2019-05-06T02:48:19.191Z,13.8
2019-05-06T02:49:23.831Z,13.8
2019-05-06T02:50:25.239Z,13.8
2019-05-06T02:51:26.478Z,13.8
2019-05-06T02:52:27.728Z,13.8
2019-05-06T02:53:28.977Z,13.8
2019-05-06T02:54:33.517Z,13.8
2019-05-06T02:55:36.204Z,13.8
2019-05-06T02:56:37.922Z,13.8
2019-05-06T02:57:39.204Z,13.8
2019-05-06T02:58:42.933Z,13.8
2019-05-06T02:59:44.936Z,13.8
2019-05-06T03:00:46.211Z,13.8
2019-05-06T03:01:47.868Z,13.8
2019-05-06T03:02:49.124Z,13.8
2019-05-06T03:03:53.272Z,13.7
2019-05-06T03:04:54.858Z,13.7
2019-05-06T03:05:56.129Z,13.7
2019-05-06T03:06:57.377Z,13.7
2019-05-06T03:07:58.606Z,13.7
2019-05-06T03:08:59.890Z,13.7
2019-05-06T03:10:04.251Z,13.7
2019-05-06T03:11:08.330Z,13.7
2019-05-06T03:12:09.571Z,13.7
2019-05-06T03:13:13.834Z,13.7
2019-05-06T03:14:15.480Z,13.7
2019-05-06T03:15:17.084Z,13.7
2019-05-06T03:16:18.685Z,13.7
2019-05-06T03:17:19.946Z,13.7
2019-05-06T03:18:24.058Z,13.7
2019-05-06T03:19:25.441Z,13.7
2019-05-06T03:20:26.693Z,13.7
2019-05-06T03:21:27.937Z,13.7
2019-05-06T03:22:34.115Z,13.6
2019-05-06T03:23:35.678Z,13.6
2019-05-06T03:24:36.927Z,13.7
2019-05-06T03:25:38.239Z,13.6
2019-05-06T03:26:39.534Z,13.6
2019-05-06T03:27:43.817Z,13.6
2019-05-06T03:28:47.932Z,13.6
2019-05-06T03:29:49.154Z,13.6
2019-05-06T03:30:50.470Z,13.6
2019-05-06T03:31:57.779Z,13.6
2019-05-06T03:33:29.942Z,13.6
2019-05-06T03:35:14.605Z,13.6
2019-05-06T03:36:48.240Z,13.6
2019-05-06T03:37:53.032Z,13.6
2019-05-06T03:38:54.825Z,13.6
2019-05-06T03:39:56.284Z,13.6
2019-05-06T03:40:57.553Z,13.6
2019-05-06T03:41:58.809Z,13.6
2019-05-06T03:43:02.736Z,13.6
2019-05-06T03:44:05.508Z,13.6
2019-05-06T03:45:06.756Z,13.6
2019-05-06T03:46:08.722Z,13.6
2019-05-06T03:47:10.012Z,13.6
2019-05-06T03:48:14.609Z,13.5
2019-05-06T03:49:15.880Z,13.5
2019-05-06T03:50:17.222Z,13.5
2019-05-06T03:51:18.915Z,13.6
2019-05-06T03:52:23.156Z,13.6
2019-05-06T03:53:36.526Z,13.5
2019-05-06T03:54:37.786Z,13.5
2019-05-06T03:55:39.046Z,13.5
2019-05-06T03:56:43.120Z,13.5
2019-05-06T03:57:45.069Z,13.5
2019-05-06T03:58:47.563Z,13.5
2019-05-06T03:59:48.834Z,13.5
2019-05-06T04:00:53.661Z,13.5
2019-05-06T04:01:54.925Z,13.5
2019-05-06T04:02:56.295Z,13.5
2019-05-06T04:03:57.604Z,13.6
2019-05-06T04:05:04.498Z,13.6
2019-05-06T04:06:05.755Z,13.6
2019-05-06T04:07:07.022Z,13.6
2019-05-06T04:08:08.325Z,13.6
2019-05-06T04:09:09.634Z,13.6
2019-05-06T04:10:14.086Z,13.6
2019-05-06T04:11:15.328Z,13.6
2019-05-06T04:12:16.552Z,13.4
2019-05-06T04:13:17.829Z,13.6
2019-05-06T04:14:19.070Z,13.5
2019-05-06T04:15:22.924Z,13.6
2019-05-06T04:16:27.741Z,13.6
2019-05-06T04:17:28.978Z,13.6
2019-05-06T04:18:33.076Z,13.7
2019-05-06T04:19:34.751Z,13.7
2019-05-06T04:20:36.024Z,13.7
2019-05-06T04:21:38.163Z,13.6
2019-05-06T04:22:39.409Z,13.6
2019-05-06T04:23:43.465Z,13.6
2019-05-06T04:24:44.905Z,13.6
2019-05-06T04:25:46.169Z,13.6
2019-05-06T04:26:47.529Z,13.5
2019-05-06T04:27:49.011Z,13.5
2019-05-06T04:28:53.194Z,13.5
2019-05-06T04:29:54.715Z,13.5
2019-05-06T04:30:55.982Z,13.6
2019-05-06T04:31:57.236Z,13.6
2019-05-06T04:32:58.791Z,13.5
2019-05-06T04:34:09.625Z,13.5
2019-05-06T04:35:18.829Z,13.6
2019-05-06T04:36:20.087Z,13.6
2019-05-06T04:37:24.399Z,13.5
2019-05-06T04:38:25.696Z,13.5
2019-05-06T04:39:29.433Z,13.5
2019-05-06T04:40:33.853Z,13.5
2019-05-06T04:41:35.112Z,13.5
2019-05-06T04:42:36.536Z,13.5
2019-05-06T04:43:37.955Z,13.5
2019-05-06T04:44:39.259Z,13.5
2019-05-06T04:45:43.002Z,13.5
2019-05-06T04:46:44.646Z,13.5
2019-05-06T04:47:46.232Z,13.6
2019-05-06T04:48:47.714Z,13.6
2019-05-06T04:49:49.307Z,13.6
2019-05-06T04:50:53.883Z,13.6
2019-05-06T04:51:55.335Z,13.6
2019-05-06T04:52:59.473Z,13.6
2019-05-06T04:54:13.018Z,13.6
2019-05-06T04:55:14.761Z,13.6
2019-05-06T04:56:16.255Z,13.6
2019-05-06T04:57:18.865Z,13.6
2019-05-06T04:58:23.061Z,13.6
2019-05-06T04:59:24.632Z,13.6
2019-05-06T05:00:25.907Z,13.6
2019-05-06T05:01:27.173Z,13.6
2019-05-06T05:02:28.625Z,13.6
2019-05-06T05:03:29.879Z,13.6
2019-05-06T05:04:36.681Z,13.6
2019-05-06T05:05:38.883Z,13.6
2019-05-06T05:06:40.125Z,13.6
2019-05-06T05:07:43.974Z,13.6
2019-05-06T05:08:45.260Z,13.6
2019-05-06T05:09:47.647Z,13.6
2019-05-06T05:10:52.328Z,13.6
2019-05-06T05:11:55.355Z,13.6
2019-05-06T05:12:56.599Z,13.7
2019-05-06T05:13:57.893Z,13.6
2019-05-06T05:14:59.152Z,13.7
2019-05-06T05:16:02.251Z,13.6
2019-05-06T05:17:04.049Z,13.6
2019-05-06T05:18:05.291Z,13.6
2019-05-06T05:19:06.556Z,13.7
2019-05-06T05:20:07.800Z,13.7
2019-05-06T05:21:09.107Z,13.7
2019-05-06T05:22:12.533Z,13.7
2019-05-06T05:23:14.252Z,13.7
2019-05-06T05:24:15.513Z,13.7
2019-05-06T05:25:16.823Z,13.7
2019-05-06T05:26:18.076Z,13.7
2019-05-06T05:27:19.371Z,13.7
2019-05-06T05:28:22.704Z,13.7
2019-05-06T05:29:23.996Z,13.7
2019-05-06T05:30:26.860Z,13.7
2019-05-06T05:31:28.178Z,13.7
2019-05-06T05:32:29.419Z,13.7
2019-05-06T05:33:33.272Z,13.7
2019-05-06T05:34:39.734Z,13.7
2019-05-06T05:35:45.285Z,13.8
2019-05-06T05:36:46.552Z,13.7
2019-05-06T05:37:47.802Z,13.7
2019-05-06T05:38:52.200Z,13.7
2019-05-06T05:39:53.549Z,13.7
2019-05-06T05:40:54.810Z,13.7
2019-05-06T05:41:56.093Z,13.7
2019-05-06T05:42:57.398Z,13.7
2019-05-06T05:43:58.639Z,13.8
2019-05-06T05:45:02.411Z,13.7
2019-05-06T05:46:05.047Z,13.8
2019-05-06T05:47:06.810Z,13.8
2019-05-06T05:48:08.047Z,13.8
2019-05-06T05:49:09.585Z,13.8
2019-05-06T05:50:13.263Z,13.8
2019-05-06T05:51:14.974Z,13.8
2019-05-06T05:52:16.282Z,13.8
2019-05-06T05:53:17.780Z,13.8
2019-05-06T05:54:19.578Z,13.8
2019-05-06T05:55:21.887Z,13.8
2019-05-06T05:56:24.073Z,13.8
2019-05-06T05:57:25.418Z,13.8
2019-05-06T05:58:27.150Z,13.8
2019-05-06T05:59:28.382Z,13.9
2019-05-06T06:00:32.155Z,13.9
2019-05-06T06:01:33.730Z,13.9
2019-05-06T06:02:34.996Z,13.9
2019-05-06T06:03:36.262Z,13.9
2019-05-06T06:04:50.633Z,13.9
2019-05-06T06:05:58.083Z,13.9
2019-05-06T06:06:59.616Z,13.9
2019-05-06T06:08:03.426Z,13.9
2019-05-06T06:09:06.551Z,13.9
2019-05-06T06:10:10.206Z,13.9
2019-05-06T06:11:13.582Z,14
2019-05-06T06:12:14.866Z,14
2019-05-06T06:13:16.168Z,14
2019-05-06T06:14:17.428Z,14
2019-05-06T06:15:18.708Z,14
2019-05-06T06:16:20.218Z,14
2019-05-06T06:17:23.976Z,14
2019-05-06T06:18:25.559Z,14
2019-05-06T06:19:26.904Z,14
2019-05-06T06:20:29.248Z,14
2019-05-06T06:21:32.187Z,14.1
2019-05-06T06:22:33.618Z,14.1
2019-05-06T06:23:34.932Z,14.1
2019-05-06T06:24:36.190Z,14.1
2019-05-06T06:25:37.779Z,14.1
2019-05-06T06:26:39.056Z,14.1
2019-05-06T06:27:42.035Z,14.2
2019-05-06T06:28:43.452Z,14.2
2019-05-06T06:29:45.379Z,14.2
2019-05-06T06:30:47.150Z,14.2
2019-05-06T06:31:48.497Z,14.2
2019-05-06T06:32:49.760Z,14.2
2019-05-06T06:33:53.420Z,14.2
2019-05-06T06:35:07.317Z,14.2
2019-05-06T06:36:16.026Z,14.2
2019-05-06T06:37:17.594Z,14.3
2019-05-06T06:38:19.089Z,14.3
2019-05-06T06:39:22.772Z,14.3
2019-05-06T06:40:24.238Z,14.3
2019-05-06T06:41:25.520Z,14.3
2019-05-06T06:42:26.779Z,14.3
2019-05-06T06:43:28.030Z,14.3
2019-05-06T06:44:29.326Z,14.4
2019-05-06T06:45:32.434Z,14.4
2019-05-06T06:46:33.937Z,14.4
2019-05-06T06:47:35.209Z,14.4
2019-05-06T06:48:36.689Z,14.4
2019-05-06T06:49:38.243Z,14.4
2019-05-06T06:50:39.516Z,14.5
2019-05-06T06:51:42.438Z,14.4
2019-05-06T06:52:43.886Z,14.5
2019-05-06T06:53:45.177Z,14.5
2019-05-06T06:54:46.619Z,14.5
2019-05-06T06:55:48.333Z,14.5
2019-05-06T06:57:03.084Z,14.6
2019-05-06T06:58:11.844Z,14.6
2019-05-06T06:59:15.808Z,14.6
2019-05-06T07:00:17.367Z,14.6
2019-05-06T07:01:20.200Z,14.6
2019-05-06T07:02:24.159Z,14.6
2019-05-06T07:03:25.460Z,14.6
2019-05-06T07:04:27.420Z,14.7
2019-05-06T07:05:28.808Z,14.7
2019-05-06T07:06:30.400Z,14.7
2019-05-06T07:07:43.302Z,14.7
2019-05-06T07:08:48.197Z,14.7
2019-05-06T07:09:49.440Z,14.8
2019-05-06T07:10:53.282Z,14.8
2019-05-06T07:11:54.720Z,14.8
2019-05-06T07:12:56.322Z,14.8
2019-05-06T07:13:57.873Z,14.8
2019-05-06T07:15:02.225Z,14.8
2019-05-06T07:16:04.128Z,14.9
2019-05-06T07:17:05.388Z,14.9
2019-05-06T07:18:07.867Z,14.9
2019-05-06T07:19:09.099Z,14.9
2019-05-06T07:20:10.660Z,14.9
2019-05-06T07:21:14.306Z,14.9
2019-05-06T07:22:15.582Z,14.9
2019-05-06T07:23:17.093Z,14.9
2019-05-06T07:24:18.370Z,14.9
2019-05-06T07:25:19.670Z,14.9
2019-05-06T07:26:23.816Z,15
2019-05-06T07:27:25.197Z,15
2019-05-06T07:28:29.530Z,15
2019-05-06T07:29:33.253Z,15
2019-05-06T07:30:34.571Z,15.1
2019-05-06T07:31:35.900Z,15.1
2019-05-06T07:32:37.263Z,15.1
2019-05-06T07:33:38.810Z,15.2
2019-05-06T07:34:42.010Z,15.2
2019-05-06T07:35:43.904Z,15.3
2019-05-06T07:36:45.721Z,15.4
2019-05-06T07:37:49.767Z,15.4
2019-05-06T07:38:53.986Z,15.4
2019-05-06T07:39:55.228Z,15.4
2019-05-06T07:41:04.494Z,15.4
2019-05-06T07:42:08.727Z,15.4
2019-05-06T07:43:09.992Z,15.4
2019-05-06T07:44:13.361Z,15.5
2019-05-06T07:45:14.640Z,15.5
2019-05-06T07:46:18.704Z,15.5
2019-05-06T07:47:20.365Z,15.5
2019-05-06T07:48:22.104Z,15.6
2019-05-06T07:49:24.148Z,15.6
2019-05-06T07:50:39.738Z,15.6
2019-05-06T07:51:43.189Z,15.6
2019-05-06T07:52:44.494Z,15.7
2019-05-06T07:53:45.745Z,15.8
2019-05-06T07:54:47.123Z,15.9
2019-05-06T07:55:48.723Z,15.9
2019-05-06T07:56:52.597Z,15.9
2019-05-06T07:57:59.035Z,16
2019-05-06T07:59:00.284Z,16.1
2019-05-06T08:00:05.159Z,16.1
2019-05-06T08:01:06.435Z,16.1
2019-05-06T08:02:15.759Z,16.2
2019-05-06T08:03:23.715Z,16.2
2019-05-06T08:04:25.241Z,16.1
2019-05-06T08:05:26.671Z,16.2
2019-05-06T08:06:29.149Z,16.3
2019-05-06T08:07:33.840Z,16.3
2019-05-06T08:08:35.293Z,16.4
2019-05-06T08:09:36.646Z,16.5
2019-05-06T08:10:38.265Z,16.5
2019-05-06T08:11:43.083Z,16.5
2019-05-06T08:12:44.348Z,16.5
2019-05-06T08:13:45.671Z,16.4
2019-05-06T08:14:46.943Z,16.4
2019-05-06T08:15:48.210Z,16.4
2019-05-06T08:16:49.770Z,16.5
2019-05-06T08:17:52.379Z,16.5
2019-05-06T08:18:53.822Z,16.5
2019-05-06T08:19:55.095Z,16.6
2019-05-06T08:20:56.351Z,16.6
2019-05-06T08:21:57.739Z,16.6
2019-05-06T08:22:59.039Z,16.6
2019-05-06T08:24:02.836Z,16.7
2019-05-06T08:25:04.177Z,16.7
2019-05-06T08:26:11.908Z,16.7
2019-05-06T08:27:18.203Z,16.7
2019-05-06T08:28:19.478Z,16.7
2019-05-06T08:29:23.655Z,16.8
2019-05-06T08:30:24.932Z,16.8
2019-05-06T08:31:26.380Z,16.8
2019-05-06T08:32:27.660Z,16.9
2019-05-06T08:33:28.932Z,16.9
2019-05-06T08:34:30.350Z,17
2019-05-06T08:35:33.088Z,16.9
2019-05-06T08:36:34.639Z,17
2019-05-06T08:37:35.913Z,17
2019-05-06T08:38:37.246Z,17
2019-05-06T08:39:41.606Z,17
2019-05-06T08:40:49.181Z,17
2019-05-06T08:41:50.459Z,17
2019-05-06T08:42:53.734Z,17
2019-05-06T08:43:55.038Z,17
2019-05-06T08:44:56.590Z,17.1
2019-05-06T08:45:57.847Z,17.1
2019-05-06T08:47:02.476Z,17
2019-05-06T08:48:04.454Z,17.1
2019-05-06T08:49:05.715Z,17.1
2019-05-06T08:50:09.494Z,17.1
2019-05-06T08:51:13.030Z,17.1
2019-05-06T08:52:14.803Z,17.1
2019-05-06T08:53:16.121Z,17.1
2019-05-06T08:54:17.451Z,17.1
2019-05-06T08:55:19.143Z,17.1
2019-05-06T08:56:22.715Z,17
2019-05-06T08:57:24.026Z,17.1
2019-05-06T08:58:25.630Z,17.1
2019-05-06T08:59:26.882Z,17.2
2019-05-06T09:00:28.510Z,17.2
2019-05-06T09:01:29.765Z,17.2
2019-05-06T09:02:34.252Z,17.2
2019-05-06T09:03:36.902Z,17.2
2019-05-06T09:04:38.208Z,17.2
2019-05-06T09:05:39.575Z,17.2
2019-05-06T09:06:43.321Z,17.2
2019-05-06T09:07:44.726Z,17.2
2019-05-06T09:08:46.008Z,17.2
2019-05-06T09:09:47.610Z,17.2
2019-05-06T09:10:49.022Z,17.2
2019-05-06T09:11:53.413Z,17.2
2019-05-06T09:12:54.872Z,17.2
2019-05-06T09:13:56.158Z,17.3
2019-05-06T09:14:57.424Z,17.3
2019-05-06T09:15:58.749Z,17.3
2019-05-06T09:17:03.124Z,17.4
2019-05-06T09:18:07.624Z,17.4
2019-05-06T09:19:16.286Z,17.4
2019-05-06T09:20:18.980Z,17.4
2019-05-06T09:21:22.404Z,17.4
2019-05-06T09:22:23.952Z,17.4
2019-05-06T09:23:27.486Z,17.5
2019-05-06T09:24:33.388Z,17.5
2019-05-06T09:25:36.327Z,17.5
2019-05-06T09:26:37.827Z,17.5
2019-05-06T09:27:39.418Z,17.5
2019-05-06T09:28:42.890Z,17.6
2019-05-06T09:29:44.309Z,17.6
2019-05-06T09:30:46.782Z,17.6
2019-05-06T09:31:48.312Z,17.6
2019-05-06T09:32:49.565Z,17.6
2019-05-06T09:33:53.312Z,17.6
2019-05-06T09:34:57.840Z,17.6
2019-05-06T09:35:59.102Z,17.6
2019-05-06T09:37:03.549Z,17.6
2019-05-06T09:38:08.274Z,17.6
2019-05-06T09:39:09.760Z,17.7
2019-05-06T09:40:13.692Z,17.7
2019-05-06T09:41:14.952Z,17.6
2019-05-06T09:42:16.252Z,17.6
2019-05-06T09:43:19.352Z,17.7
2019-05-06T09:44:23.096Z,17.6
2019-05-06T09:45:24.348Z,17.6
2019-05-06T09:46:25.672Z,17.6
2019-05-06T09:47:27.928Z,17.6
2019-05-06T09:48:29.250Z,17.6
2019-05-06T09:49:33.718Z,17.7
2019-05-06T09:50:37.436Z,17.7
2019-05-06T09:51:38.734Z,17.7
2019-05-06T09:52:42.490Z,17.7
2019-05-06T09:53:44.626Z,17.7
2019-05-06T09:54:53.604Z,17.7
2019-05-06T09:55:57.391Z,17.7
2019-05-06T09:56:58.920Z,17.7
2019-05-06T09:58:03.118Z,17.7
2019-05-06T09:59:04.983Z,17.7
2019-05-06T10:00:08.431Z,17.7
2019-05-06T10:01:10.011Z,17.8
2019-05-06T10:02:13.960Z,17.8
2019-05-06T10:03:15.306Z,17.8
2019-05-06T10:04:17.075Z,17.8
2019-05-06T10:05:18.392Z,17.8
2019-05-06T10:06:22.161Z,17.8
2019-05-06T10:07:23.692Z,17.9
2019-05-06T10:08:27.345Z,17.9
2019-05-06T10:09:28.606Z,17.9
2019-05-06T10:10:32.851Z,17.9
2019-05-06T10:11:34.860Z,17.9
2019-05-06T10:12:38.340Z,17.9
2019-05-06T10:13:39.626Z,17.9
2019-05-06T10:14:43.161Z,17.9
2019-05-06T10:15:44.588Z,17.9
2019-05-06T10:16:45.870Z,17.9
2019-05-06T10:17:47.115Z,17.9
2019-05-06T10:18:48.644Z,17.9
2019-05-06T10:19:49.952Z,17.9
2019-05-06T10:20:51.218Z,17.9
2019-05-06T10:21:53.015Z,17.9
2019-05-06T10:22:54.460Z,17.9
2019-05-06T10:23:56.545Z,17.9
2019-05-06T10:24:58.028Z,17.9
2019-05-06T10:25:59.319Z,17.9
2019-05-06T10:27:05.107Z,17.8
2019-05-06T10:28:06.375Z,17.9
2019-05-06T10:29:07.664Z,17.9
2019-05-06T10:30:08.979Z,17.9
2019-05-06T10:31:16.125Z,17.8
2019-05-06T10:32:17.371Z,17.9
2019-05-06T10:33:23.092Z,17.9
2019-05-06T10:34:29.365Z,17.9
2019-05-06T10:35:33.853Z,17.9
2019-05-06T10:36:35.630Z,17.8
2019-05-06T10:37:38.042Z,17.9
2019-05-06T10:38:39.735Z,17.9
2019-05-06T10:39:52.159Z,17.9
2019-05-06T10:41:00.629Z,17.9
2019-05-06T10:42:08.225Z,17.9
2019-05-06T10:43:09.697Z,17.9
2019-05-06T10:44:11.325Z,18
2019-05-06T10:45:13.099Z,18
2019-05-06T10:46:14.461Z,18
2019-05-06T10:47:15.946Z,18
2019-05-06T10:48:17.211Z,18
2019-05-06T10:49:18.483Z,18
2019-05-06T10:50:19.809Z,18
2019-05-06T10:51:24.166Z,18
2019-05-06T10:52:25.491Z,18
2019-05-06T10:53:26.748Z,18
2019-05-06T10:54:28.016Z,18
2019-05-06T10:55:31.935Z,18
2019-05-06T10:56:49.054Z,18
2019-05-06T10:58:02.587Z,18
2019-05-06T10:59:04.549Z,18
2019-05-06T11:00:05.954Z,18
2019-05-06T11:01:07.327Z,18
2019-05-06T11:02:13.614Z,18
2019-05-06T11:03:15.126Z,18
2019-05-06T11:04:17.295Z,18
2019-05-06T11:05:18.820Z,18
2019-05-06T11:06:37.598Z,18
2019-05-06T11:07:38.938Z,18
2019-05-06T11:08:41.989Z,18
2019-05-06T11:09:43.661Z,18
2019-05-06T11:10:45.526Z,18
2019-05-06T11:11:50.159Z,18
2019-05-06T11:12:52.285Z,18
2019-05-06T11:13:53.794Z,18
2019-05-06T11:14:55.709Z,18
2019-05-06T11:15:57.817Z,18
2019-05-06T11:16:59.129Z,18
2019-05-06T11:18:05.917Z,18
2019-05-06T11:19:07.487Z,18
2019-05-06T11:20:10.660Z,18
2019-05-06T11:21:22.185Z,18
2019-05-06T11:22:24.807Z,18
2019-05-06T11:23:29.659Z,18
2019-05-06T11:24:32.624Z,18
2019-05-06T11:25:37.816Z,18
2019-05-06T11:26:43.587Z,18.1
2019-05-06T11:27:52.614Z,18.1
2019-05-06T11:28:54.635Z,18.1
2019-05-06T11:30:02.356Z,18.1
2019-05-06T11:31:09.166Z,18.1
2019-05-06T11:32:14.644Z,18.1
2019-05-06T11:33:16.245Z,18.1
2019-05-06T11:34:17.817Z,18
2019-05-06T11:35:22.787Z,18
2019-05-06T11:36:25.465Z,18
2019-05-06T11:37:26.891Z,18
2019-05-06T11:38:48.432Z,18
2019-05-06T11:39:52.261Z,18
2019-05-06T11:40:54.248Z,17.9
2019-05-06T11:42:14.799Z,18
2019-05-06T11:43:32.521Z,18
2019-05-06T11:44:34.032Z,18
2019-05-06T11:45:35.389Z,18
2019-05-06T11:46:36.734Z,18
2019-05-06T11:47:44.597Z,17.9
2019-05-06T11:48:46.663Z,17.9
2019-05-06T11:49:56.200Z,17.9
2019-05-06T11:51:00.353Z,17.9
2019-05-06T11:52:03.259Z,17.9
2019-05-06T11:53:04.774Z,17.9
2019-05-06T11:54:16.281Z,17.9
2019-05-06T11:55:30.760Z,17.9
2019-05-06T11:56:48.610Z,17.9
2019-05-06T11:57:58.795Z,17.9
2019-05-06T11:59:03.484Z,17.9
2019-05-06T12:00:04.739Z,17.9
2019-05-06T12:01:06.066Z,17.9
2019-05-06T12:02:08.591Z,17.9
2019-05-06T12:03:09.873Z,17.9
2019-05-06T12:04:13.854Z,17.9
2019-05-06T12:05:15.260Z,17.9
2019-05-06T12:06:16.602Z,17.9
2019-05-06T12:07:17.874Z,18
2019-05-06T12:08:19.169Z,17.8
2019-05-06T12:09:22.854Z,17.9
2019-05-06T12:10:25.563Z,17.9
2019-05-06T12:11:27.200Z,17.9
2019-05-06T12:12:33.441Z,17.9
2019-05-06T12:13:38.037Z,17.9
2019-05-06T12:14:43.014Z,17.9
2019-05-06T12:15:44.629Z,17.9
2019-05-06T12:16:45.962Z,17.9
2019-05-06T12:17:49.558Z,17.9
2019-05-06T12:18:52.855Z,17.9
2019-05-06T12:19:56.825Z,17.9
2019-05-06T12:21:08.113Z,18
2019-05-06T12:22:18.829Z,17.9
2019-05-06T12:23:22.925Z,18
2019-05-06T12:24:24.389Z,18
2019-05-06T12:25:25.680Z,18
2019-05-06T12:26:27.018Z,18
2019-05-06T12:27:28.346Z,18
2019-05-06T12:28:29.681Z,18
2019-05-06T12:29:33.280Z,18
2019-05-06T12:30:34.565Z,18
2019-05-06T12:31:35.835Z,18
2019-05-06T12:32:37.132Z,18
2019-05-06T12:33:38.403Z,18
2019-05-06T12:34:46.380Z,18
2019-05-06T12:35:47.911Z,18
2019-05-06T12:36:52.580Z,18
2019-05-06T12:38:22.949Z,18
2019-05-06T12:39:32.928Z,18
2019-05-06T12:40:34.475Z,18
2019-05-06T12:41:36.076Z,18
2019-05-06T12:42:37.588Z,18
2019-05-06T12:43:38.893Z,18
2019-05-06T12:44:42.445Z,18
2019-05-06T12:45:43.703Z,18
2019-05-06T12:46:46.346Z,18
2019-05-06T12:47:49.912Z,18.1
2019-05-06T12:48:52.112Z,18.1
2019-05-06T12:49:58.207Z,18
2019-05-06T12:50:59.501Z,18
2019-05-06T12:52:01.312Z,18.1
2019-05-06T12:53:02.576Z,18.1
2019-05-06T12:54:03.905Z,17.9
2019-05-06T12:55:16.680Z,18.1
2019-05-06T12:56:22.362Z,18.1
2019-05-06T12:57:25.160Z,18.1
2019-05-06T12:58:26.447Z,18.1
2019-05-06T12:59:27.815Z,18.1
2019-05-06T13:00:29.126Z,18.1
2019-05-06T13:01:33.406Z,18.1
2019-05-06T13:02:35.552Z,18.1
2019-05-06T13:03:37.231Z,18.1
2019-05-06T13:04:51.070Z,18.1
2019-05-06T13:06:07.145Z,18.1
2019-05-06T13:07:09.900Z,18.1
2019-05-06T13:08:18.719Z,18.1
2019-05-06T13:09:23.322Z,18.1
2019-05-06T13:10:24.695Z,18.1
2019-05-06T13:11:28.516Z,18.1
2019-05-06T13:12:33.649Z,18.1
2019-05-06T13:13:52.624Z,18.1
2019-05-06T13:15:03.479Z,18.2
2019-05-06T13:16:09.054Z,18.2
2019-05-06T13:17:12.192Z,18.2
2019-05-06T13:18:13.660Z,18.2
2019-05-06T13:19:16.459Z,18.2
2019-05-06T13:20:18.143Z,18.2
2019-05-06T13:21:22.171Z,18.2
2019-05-06T13:22:24.420Z,18.2
2019-05-06T13:23:26.189Z,18.2
2019-05-06T13:24:32.555Z,18.2
2019-05-06T13:25:36.302Z,18.2
2019-05-06T13:26:38.230Z,18.3
2019-05-06T13:27:42.769Z,18.3
2019-05-06T13:28:44.543Z,18.1
2019-05-06T13:29:45.808Z,18.3
2019-05-06T13:30:47.110Z,18.3
2019-05-06T13:31:48.398Z,18.3
2019-05-06T13:32:49.716Z,18.3
2019-05-06T13:33:54.843Z,18.3
2019-05-06T13:35:01.003Z,18.3
2019-05-06T13:36:03.962Z,18.3
2019-05-06T13:37:07.987Z,18.3
2019-05-06T13:38:09.600Z,18.3
2019-05-06T13:39:14.837Z,18.3
2019-05-06T13:40:19.323Z,18.3
2019-05-06T13:41:22.350Z,18.3
2019-05-06T13:42:34.216Z,18.3
2019-05-06T13:43:37.554Z,18.3
2019-05-06T13:44:38.849Z,18.3
2019-05-06T13:45:43.186Z,18.3
2019-05-06T13:46:45.132Z,18.3
2019-05-06T13:47:46.714Z,18.3
2019-05-06T13:48:52.951Z,18.3
2019-05-06T13:49:58.314Z,18.3
2019-05-06T13:51:02.773Z,18.3
2019-05-06T13:52:04.802Z,18.3
2019-05-06T13:53:10.977Z,18.3
2019-05-06T13:54:16.032Z,18.3
2019-05-06T13:55:19.166Z,18.3
2019-05-06T13:56:24.380Z,18.3
2019-05-06T13:57:29.123Z,18.3
2019-05-06T13:58:43.048Z,18.3
2019-05-06T13:59:44.488Z,18.4
2019-05-06T14:00:45.866Z,18.4
2019-05-06T14:01:47.394Z,18.4
2019-05-06T14:02:48.656Z,18.4
2019-05-06T14:03:52.181Z,18.4
2019-05-06T14:04:56.800Z,18.4
2019-05-06T14:05:58.077Z,18.4
2019-05-06T14:07:07.221Z,18.3
2019-05-06T14:08:09.200Z,18.3
2019-05-06T14:09:24.789Z,18.4
2019-05-06T14:10:41.817Z,18.4
2019-05-06T14:11:57.463Z,18.4